Alpine, Texas
Current Conditions -  °F | °C
As of 11:35 AM on Friday 31 Oct 2014 (Local Time) from KE38 Reporting Station
Broken Clouds Broken Clouds  
Wind Chill: 63°   Ceiling: 2800
Heat Index: 63°   Visibility: 10mi
Dew Point: 43°   Wind: 9mph
Humidity: 48%   Direction: 60°ENE
Pressure: 30.47"   Gusts: NA
Location:  30.36°N, 103.66°W
Report Text: KE38 311635Z AUTO 06008KT 10SM BKN028 17/06 A3047 RMK AO2 T01730061
Loading
Personal Weather Stations






























Interactive Weather Map New forecast layout! Learn more

10-Day Weather Forecast

Advertisements
Track Severe Weather on mobile